Time;durP1;ratioP1;P1;durP2;ratioP2;P2;SDS_P1;SDS_P2;PMS_P1;PMS_P2;Temp;Humidity;BMP_temperature;BMP_pressure;BME280_temperature;BME280_humidity;BME280_pressure;Samples;Min_cycle;Max_cycle;Signal;HPM_P1;HPM_P2
2022/04/05 00:01:55;;;;;;;7.90;5.15;;;;;;;7.63;52.54;100008.34;4162363;28;20061;-61
2022/04/05 00:03:58;;;;;;;7.15;4.55;;;;;;;7.62;52.62;100014.38;4165008;28;20038;-62
2022/04/05 00:06:01;;;;;;;9.88;5.35;;;;;;;7.57;52.56;100008.25;4163294;28;20486;-62
2022/04/05 00:08:05;;;;;;;9.77;5.18;;;;;;;7.51;52.63;100006.41;4164607;28;20034;-61
2022/04/05 00:10:08;;;;;;;8.20;4.70;;;;;;;7.53;52.57;99998.66;4166078;28;20129;-62
2022/04/05 00:12:11;;;;;;;7.97;4.90;;;;;;;7.56;52.55;100011.66;4166869;28;20041;-62
2022/04/05 00:14:14;;;;;;;11.18;5.03;;;;;;;7.60;52.77;100008.28;4165944;28;20037;-62
2022/04/05 00:16:18;;;;;;;13.45;5.40;;;;;;;7.60;52.61;100010.03;4165353;28;20047;-62
2022/04/05 00:18:21;;;;;;;9.35;4.70;;;;;;;7.50;52.75;100016.72;4166020;28;20450;-62
2022/04/05 00:20:27;;;;;;;7.25;4.35;;;;;;;7.64;52.58;100015.28;4156393;28;20065;-62
2022/04/05 00:22:30;;;;;;;8.00;4.60;;;;;;;7.57;53.21;100009.97;4159774;28;20051;-62
2022/04/05 00:24:33;;;;;;;9.68;4.88;;;;;;;7.67;52.64;100001.53;4165559;28;20037;-61
2022/04/05 00:26:36;;;;;;;9.25;5.32;;;;;;;7.51;52.99;100003.81;4165316;28;20434;-61
2022/04/05 00:28:39;;;;;;;8.07;4.32;;;;;;;7.47;53.44;100003.75;4165120;28;20480;-61
2022/04/05 00:30:42;;;;;;;9.60;4.93;;;;;;;7.49;53.29;100002.94;4165294;28;20530;-62
2022/04/05 00:32:46;;;;;;;8.52;4.65;;;;;;;7.45;53.39;100011.47;4164598;28;20100;-63
2022/04/05 00:34:49;;;;;;;7.50;4.60;;;;;;;7.47;53.52;100009.78;4166188;28;20037;-62
2022/04/05 00:36:53;;;;;;;8.32;4.95;;;;;;;7.57;53.36;100004.78;4164442;28;20047;-62
2022/04/05 00:38:55;;;;;;;6.32;3.83;;;;;;;7.52;53.98;99999.53;4165759;28;20042;-63
2022/04/05 00:40:59;;;;;;;6.25;3.95;;;;;;;7.64;53.33;99980.78;4169284;28;20136;-62
2022/04/05 00:43:05;;;;;;;8.85;5.10;;;;;;;7.56;53.68;99978.03;4165682;28;20124;-62
2022/04/05 00:45:10;;;;;;;6.85;4.32;;;;;;;7.48;54.04;99982.22;4165063;28;20037;-62
2022/04/05 00:47:18;;;;;;;7.97;4.65;;;;;;;7.49;54.24;99973.59;4165133;28;20037;-62
2022/04/05 00:49:28;;;;;;;13.18;5.63;;;;;;;7.50;54.22;99984.00;4163845;28;20036;-62
2022/04/05 00:51:31;;;;;;;10.80;4.80;;;;;;;7.50;54.38;99972.75;4161949;28;20124;-62
2022/04/05 00:53:35;;;;;;;8.40;4.45;;;;;;;7.54;54.28;99963.34;4165465;28;20044;-62
2022/04/05 00:55:39;;;;;;;7.50;3.97;;;;;;;7.62;53.92;99961.75;4165088;28;20124;-62
2022/04/05 00:57:43;;;;;;;9.88;4.70;;;;;;;7.69;53.92;99964.50;4164903;28;20049;-62
2022/04/05 00:59:50;;;;;;;10.77;5.00;;;;;;;7.70;54.32;99965.38;4165600;28;20052;-62
2022/04/05 01:01:54;;;;;;;8.88;4.63;;;;;;;7.64;53.95;99966.13;4179631;28;20116;-62
2022/04/05 01:03:58;;;;;;;9.27;4.95;;;;;;;7.64;54.09;99973.88;4164703;28;20103;-62
2022/04/05 01:06:04;;;;;;;10.32;4.78;;;;;;;7.62;53.89;99977.28;4165031;28;20033;-62
2022/04/05 01:08:09;;;;;;;13.23;5.65;;;;;;;7.65;53.79;99973.06;4164580;28;20134;-62
2022/04/05 01:10:12;;;;;;;9.77;5.00;;;;;;;7.64;53.92;99976.47;4164115;28;20414;-62
2022/04/05 01:12:15;;;;;;;7.95;4.10;;;;;;;7.66;53.89;99973.91;4164571;28;20040;-62
2022/04/05 01:14:18;;;;;;;9.18;4.55;;;;;;;7.64;54.54;99976.47;4165744;28;20116;-62
2022/04/05 01:16:21;;;;;;;7.85;4.78;;;;;;;7.63;54.38;99969.53;4164734;28;20037;-62
2022/04/05 01:18:24;;;;;;;8.38;4.63;;;;;;;7.67;54.70;99976.53;4157166;28;20033;-62
2022/04/05 01:20:27;;;;;;;9.35;4.78;;;;;;;7.64;54.48;99980.78;4164689;28;20040;-62
2022/04/05 01:22:31;;;;;;;9.00;3.92;;;;;;;7.56;54.87;99967.69;4164844;28;20606;-62
2022/04/05 01:24:35;;;;;;;6.00;3.55;;;;;;;7.51;54.76;99959.84;4164726;28;20038;-62
2022/04/05 01:26:40;;;;;;;7.05;3.85;;;;;;;7.56;54.46;99966.81;4180971;28;20033;-62
2022/04/05 01:28:43;;;;;;;8.48;4.03;;;;;;;7.58;55.10;99976.38;4164509;28;20507;-62
2022/04/05 01:30:46;;;;;;;6.70;4.05;;;;;;;7.58;54.95;99960.84;4171882;28;20033;-62
2022/04/05 01:32:49;;;;;;;8.70;4.32;;;;;;;7.66;54.58;99968.75;4164218;28;20041;-62
2022/04/05 01:34:52;;;;;;;6.57;3.90;;;;;;;7.69;54.78;99976.56;4165393;28;20030;-62
2022/04/05 01:36:57;;;;;;;7.78;3.88;;;;;;;7.58;55.35;99968.59;4164660;28;20068;-62
2022/04/05 01:39:00;;;;;;;;;;;;;;;7.57;55.51;99968.59;4163809;28;20076;-62
2022/04/05 01:41:04;;;;;;;7.28;3.75;;;;;;;7.62;55.61;99973.00;4164645;28;19929;-62
2022/04/05 01:43:07;;;;;;;8.15;4.53;;;;;;;7.57;55.71;99974.63;4164062;28;20033;-62
2022/04/05 01:45:10;;;;;;;5.47;3.30;;;;;;;7.64;56.10;99973.03;4162585;28;20044;-62
2022/04/05 01:47:15;;;;;;;6.07;3.75;;;;;;;7.64;56.34;99976.47;4164038;28;20124;-62
2022/04/05 01:49:19;;;;;;;4.55;3.17;;;;;;;7.52;56.27;99971.09;4180811;28;20040;-62
2022/04/05 01:51:22;;;;;;;10.68;4.15;;;;;;;7.50;56.50;99978.81;4164947;28;20037;-62
2022/04/05 01:53:25;;;;;;;8.82;3.67;;;;;;;7.53;56.99;99967.63;4156258;28;20132;-63
2022/04/05 01:55:28;;;;;;;8.48;4.05;;;;;;;7.53;56.48;99965.06;4163881;28;20033;-62
2022/04/05 01:57:32;;;;;;;6.03;3.58;;;;;;;7.56;57.01;99979.75;4165523;28;20045;-61
2022/04/05 01:59:37;;;;;;;7.60;4.13;;;;;;;7.61;57.21;99966.06;4163119;28;20435;-62
2022/04/05 02:01:41;;;;;;;5.88;3.65;;;;;;;7.55;57.08;99965.97;4162607;28;20476;-62
2022/04/05 02:03:44;;;;;;;6.00;4.10;;;;;;;7.51;57.39;99969.34;4165088;28;20041;-62
2022/04/05 02:05:48;;;;;;;6.88;4.63;;;;;;;7.47;57.48;99967.53;4163813;28;20404;-61
2022/04/05 02:07:51;;;;;;;12.35;5.00;;;;;;;7.46;57.33;99963.19;4180620;28;20037;-62
2022/04/05 02:09:54;;;;;;;6.05;3.63;;;;;;;7.48;57.43;99962.38;4163282;28;20411;-62
2022/04/05 02:11:58;;;;;;;7.43;4.20;;;;;;;7.56;57.68;99965.09;4146171;28;20431;-62
2022/04/05 02:14:32;;;;;;;7.13;4.13;;;;;;;7.45;58.63;99958.88;4157218;28;20038;-62
2022/04/05 02:16:39;;;;;;;10.63;4.40;;;;;;;7.45;58.23;99969.22;4179042;28;20037;-62
2022/04/05 02:18:45;;;;;;;9.70;4.32;;;;;;;7.43;58.57;99970.91;4163010;28;20037;-62
2022/04/05 02:20:49;;;;;;;6.05;3.70;;;;;;;7.44;58.75;99968.34;4162333;28;20385;-62
2022/04/05 02:22:59;;;;;;;5.43;3.67;;;;;;;7.54;58.14;99974.56;4162768;28;20072;-62
2022/04/05 02:25:28;;;;;;;6.00;3.38;;;;;;;7.34;58.71;99975.06;4157682;28;20094;-62
2022/04/05 02:27:33;;;;;;;7.00;3.90;;;;;;;7.32;59.01;99976.72;4178521;28;20112;-62
2022/04/05 02:29:38;;;;;;;6.53;3.78;;;;;;;7.39;59.55;99975.16;4162851;28;20415;-62
2022/04/05 02:31:52;;;;;;;7.50;4.28;;;;;;;7.28;59.27;99974.91;4163473;28;20084;-62
2022/04/05 02:33:56;;;;;;;7.20;3.97;;;;;;;7.25;59.44;99977.44;4162573;28;20037;-61
2022/04/05 02:36:09;;;;;;;6.47;4.25;;;;;;;7.34;59.58;99972.47;4179820;28;20068;-62
2022/04/05 02:38:13;;;;;;;8.52;4.15;;;;;;;7.37;59.59;99975.97;4163977;28;20057;-62
2022/04/05 02:40:17;;;;;;;7.47;4.10;;;;;;;7.22;60.37;99977.41;4179194;28;20047;-62
2022/04/05 02:42:22;;;;;;;5.00;3.53;;;;;;;7.21;60.10;99980.81;4162543;28;20029;-62
2022/04/05 02:44:26;;;;;;;6.60;3.90;;;;;;;7.24;60.61;99978.31;4154856;28;20095;-62
2022/04/05 02:46:36;;;;;;;6.82;4.00;;;;;;;7.30;60.66;99962.03;4162237;28;20056;-62
2022/04/05 02:48:43;;;;;;;9.75;4.35;;;;;;;7.31;60.28;99966.38;4178101;28;20044;-62
2022/04/05 02:50:52;;;;;;;7.05;3.65;;;;;;;7.23;60.57;99961.06;4162679;28;20041;-62
2022/04/05 02:52:56;;;;;;;5.85;3.60;;;;;;;7.19;60.87;99966.13;4163247;28;20033;-63
2022/04/05 02:54:59;;;;;;;6.93;3.80;;;;;;;7.26;61.02;99971.44;4163083;28;20095;-62
2022/04/05 02:57:05;;;;;;;9.38;4.10;;;;;;;7.32;60.86;99971.56;4179867;28;20123;-62
2022/04/05 02:59:08;;;;;;;9.10;3.85;;;;;;;7.19;61.48;99971.31;4145963;28;20081;-62
2022/04/05 03:01:11;;;;;;;7.72;3.70;;;;;;;7.31;61.30;99974.13;4162337;28;20088;-63
2022/04/05 03:03:17;;;;;;;5.72;3.85;;;;;;;7.24;61.93;99960.22;4162284;28;20087;-62
2022/04/05 03:05:26;;;;;;;7.68;4.15;;;;;;;7.14;62.55;99966.00;4145242;28;20045;-62
2022/04/05 03:07:35;;;;;;;7.05;3.67;;;;;;;7.26;62.47;99966.28;4157825;28;20042;-62
2022/04/05 03:09:39;;;;;;;7.60;3.58;;;;;;;7.20;62.26;99958.41;4162282;28;20053;-62
2022/04/05 03:11:44;;;;;;;6.00;3.25;;;;;;;7.13;62.52;99953.97;4163018;28;20041;-62
2022/04/05 03:13:50;;;;;;;6.35;3.63;;;;;;;7.07;63.14;99949.53;4170833;28;20037;-63
2022/04/05 03:15:53;;;;;;;4.72;2.95;;;;;;;7.02;63.02;99958.03;4175387;28;20056;-62
2022/04/05 03:17:58;;;;;;;4.15;3.20;;;;;;;6.96;63.40;99953.59;4179262;28;20033;-62
2022/04/05 03:20:07;;;;;;;5.93;3.90;;;;;;;7.06;63.55;99949.50;4163817;28;20056;-62
2022/04/05 03:22:10;;;;;;;9.07;3.40;;;;;;;7.05;63.49;99951.19;4163879;28;20037;-62
2022/04/05 03:24:13;;;;;;;5.15;3.70;;;;;;;7.12;63.55;99954.78;4162011;28;20041;-62
2022/04/05 03:26:16;;;;;;;6.18;3.72;;;;;;;7.04;63.34;99964.97;4161647;28;20420;-62
2022/04/05 03:28:20;;;;;;;5.68;3.25;;;;;;;7.00;63.58;99960.59;4162957;28;20595;-62
2022/04/05 03:30:24;;;;;;;5.90;3.25;;;;;;;6.96;63.71;99969.97;4150875;28;20068;-62
2022/04/05 03:32:28;;;;;;;8.93;3.28;;;;;;;6.91;64.20;99963.84;4161582;28;20053;-62
2022/04/05 03:34:32;;;;;;;5.82;3.50;;;;;;;6.90;64.11;99958.66;4162883;28;20037;-62
2022/04/05 03:36:36;;;;;;;5.05;3.40;;;;;;;6.98;64.53;99955.38;4163780;28;20129;-62
2022/04/05 03:38:39;;;;;;;6.38;2.90;;;;;;;6.87;64.54;99951.69;4177437;28;20071;-62
2022/04/05 03:40:45;;;;;;;6.78;3.33;;;;;;;6.96;64.80;99959.63;4162115;28;20458;-62
2022/04/05 03:42:50;;;;;;;4.55;2.50;;;;;;;6.92;64.73;99957.84;4163295;28;20037;-62
2022/04/05 03:44:53;;;;;;;3.83;3.03;;;;;;;6.88;65.04;99956.03;4161438;28;20481;-62
2022/04/05 03:46:57;;;;;;;5.07;3.42;;;;;;;6.88;64.78;99950.88;4161833;28;20041;-62
2022/04/05 03:49:03;;;;;;;6.35;3.30;;;;;;;6.87;65.02;99949.13;4174516;28;20407;-62
2022/04/05 03:51:09;;;;;;;9.35;3.20;;;;;;;6.88;64.77;99958.63;4178068;28;20383;-62
2022/04/05 03:53:17;;;;;;;5.50;3.70;;;;;;;6.90;65.21;99956.94;4161782;28;20037;-62
2022/04/05 03:55:21;;;;;;;5.85;3.08;;;;;;;6.83;65.68;99957.63;4178589;28;20067;-62
2022/04/05 03:57:26;;;;;;;6.72;3.15;;;;;;;6.87;65.64;99943.94;4157278;28;20038;-62
2022/04/05 03:59:32;;;;;;;4.85;3.17;;;;;;;6.88;65.93;99948.28;4159695;28;20080;-62
2022/04/05 04:01:36;;;;;;;7.07;3.38;;;;;;;6.87;65.79;99938.78;4160648;28;20045;-62
2022/04/05 04:03:40;;;;;;;5.85;3.85;;;;;;;6.82;65.84;99945.59;4160826;28;20038;-62
2022/04/05 04:05:42;;;;;;;6.00;2.97;;;;;;;6.78;66.36;99949.78;4159551;28;20561;-61
2022/04/05 04:07:48;;;;;;;6.20;3.47;;;;;;;6.73;66.51;99942.78;4163291;28;20049;-61
2022/04/05 04:09:53;;;;;;;8.27;4.38;;;;;;;6.69;66.37;99943.56;4141546;28;20125;-62
2022/04/05 04:11:58;;;;;;;5.38;3.60;;;;;;;6.70;66.59;99950.47;4159828;28;20067;-61
2022/04/05 04:14:02;;;;;;;6.05;4.40;;;;;;;6.75;66.34;99959.19;4177990;28;20087;-62
2022/04/05 04:16:05;;;;;;;7.00;3.63;;;;;;;6.72;66.89;99951.41;4161870;28;20038;-61
2022/04/05 04:18:11;;;;;;;5.43;3.90;;;;;;;6.73;66.76;99950.53;4178952;28;20051;-62
2022/04/05 04:20:17;;;;;;;5.90;4.60;;;;;;;6.72;66.79;99960.00;4161543;28;20084;-62
2022/04/05 04:22:20;;;;;;;5.25;3.90;;;;;;;6.59;67.31;99951.09;4177657;28;20033;-62
2022/04/05 04:24:23;;;;;;;6.82;3.70;;;;;;;6.54;67.11;99949.25;4175351;28;20036;-61
2022/04/05 04:26:27;;;;;;;5.43;3.88;;;;;;;6.50;67.42;99947.44;4160585;28;20036;-61
2022/04/05 04:28:30;;;;;;;6.13;4.10;;;;;;;6.56;67.21;99943.28;4141920;28;20050;-61
2022/04/05 04:30:33;;;;;;;6.28;4.43;;;;;;;6.53;67.34;99943.22;4158149;28;20507;-61
2022/04/05 04:32:36;;;;;;;6.88;4.15;;;;;;;6.55;67.43;99945.84;4157231;28;20497;-61
2022/04/05 04:34:38;;;;;;;7.43;4.60;;;;;;;6.44;67.55;99941.31;4162358;28;20045;-62
2022/04/05 04:36:41;;;;;;;6.57;4.18;;;;;;;6.52;67.51;99946.63;4162212;28;20029;-61
2022/04/05 04:38:45;;;;;;;8.00;4.15;;;;;;;6.50;67.34;99943.16;4157203;28;20510;-62
2022/04/05 04:40:50;;;;;;;5.80;4.18;;;;;;;6.51;67.21;99944.88;4160946;28;20033;-61
2022/04/05 04:42:54;;;;;;;6.47;4.40;;;;;;;6.50;67.56;99948.34;4162300;28;20476;-61
2022/04/05 04:44:57;;;;;;;6.40;4.35;;;;;;;6.52;67.22;99945.78;4164846;28;20140;-61
2022/04/05 04:47:00;;;;;;;8.35;5.03;;;;;;;6.56;67.08;99948.47;4163070;28;20462;-61
2022/04/05 04:49:03;;;;;;;6.55;4.57;;;;;;;6.48;67.06;99955.16;4166378;28;20029;-61
2022/04/05 04:51:06;;;;;;;6.80;4.20;;;;;;;6.40;67.49;99956.72;4165160;28;20037;-61
2022/04/05 04:53:08;;;;;;;8.10;4.55;;;;;;;6.45;67.47;99957.66;4180879;28;20536;-61
2022/04/05 04:55:11;;;;;;;7.13;4.95;;;;;;;6.54;67.11;99949.25;4165855;28;20534;-62
2022/04/05 04:57:14;;;;;;;8.48;4.40;;;;;;;6.52;67.16;99946.63;4162083;28;20041;-62
2022/04/05 04:59:19;;;;;;;7.20;4.97;;;;;;;6.58;66.64;99951.94;4181559;28;20262;-62
2022/04/05 05:01:21;;;;;;;6.78;4.88;;;;;;;6.56;67.00;99958.78;4164049;28;20030;-61
2022/04/05 05:03:24;;;;;;;7.93;4.95;;;;;;;6.47;67.07;99961.19;4158194;28;20042;-61
2022/04/05 05:05:28;;;;;;;7.43;4.90;;;;;;;6.44;67.36;99945.63;4165190;28;20120;-61
2022/04/05 05:07:31;;;;;;;5.75;4.47;;;;;;;6.46;67.35;99951.69;4164399;28;20505;-61
2022/04/05 05:09:34;;;;;;;8.45;4.90;;;;;;;6.50;67.76;99953.50;4181367;28;20136;-61
2022/04/05 05:11:37;;;;;;;7.15;4.78;;;;;;;6.50;67.59;99952.59;4165060;28;20041;-61
2022/04/05 05:13:40;;;;;;;10.25;5.45;;;;;;;6.48;67.63;99955.16;4165727;28;20099;-61
2022/04/05 05:15:44;;;;;;;7.43;5.40;;;;;;;6.44;68.09;99963.69;4163617;28;20128;-61
2022/04/05 05:17:48;;;;;;;7.97;5.05;;;;;;;6.38;68.24;99964.41;4164613;28;20037;-61
2022/04/05 05:19:51;;;;;;;7.83;5.30;;;;;;;6.46;68.17;99956.84;4163794;28;20071;-61
2022/04/05 05:21:54;;;;;;;6.30;4.68;;;;;;;6.46;68.37;99956.84;4165062;28;20296;-61
2022/04/05 05:23:57;;;;;;;8.13;4.78;;;;;;;6.45;67.98;99955.09;4164682;28;20041;-61
2022/04/05 05:26:00;;;;;;;9.35;4.78;;;;;;;6.40;67.87;99959.28;4163980;28;20392;-62
2022/04/05 05:28:03;;;;;;;7.28;5.20;;;;;;;6.37;67.96;99967.84;4165784;28;20033;-62
2022/04/05 05:30:08;;;;;;;8.63;5.32;;;;;;;6.48;67.60;99965.47;4165558;28;20044;-61
2022/04/05 05:32:12;;;;;;;7.47;4.90;;;;;;;6.44;67.55;99969.72;4164167;28;20060;-62
2022/04/05 05:34:21;;;;;;;9.20;5.80;;;;;;;6.55;67.71;99966.50;4164209;28;20041;-61
2022/04/05 05:36:23;;;;;;;8.35;5.43;;;;;;;6.45;67.78;99976.63;4160457;28;20041;-61
2022/04/05 05:38:26;;;;;;;8.48;6.07;;;;;;;6.56;67.35;99963.97;4160491;28;20057;-61
2022/04/05 05:40:30;;;;;;;9.52;6.10;;;;;;;6.50;67.60;99973.25;4163885;28;20041;-61
2022/04/05 05:42:33;;;;;;;8.68;5.90;;;;;;;6.67;67.03;99977.09;4163110;28;20043;-61
2022/04/05 05:44:36;;;;;;;9.18;6.15;;;;;;;6.53;67.24;99971.63;4164735;28;20048;-62
2022/04/05 05:46:39;;;;;;;8.10;5.50;;;;;;;6.48;67.27;99973.22;4164140;28;20517;-61
2022/04/05 05:48:43;;;;;;;8.57;5.95;;;;;;;6.32;67.77;99974.59;4165330;28;20048;-61
2022/04/05 05:50:46;;;;;;;10.82;6.38;;;;;;;6.37;68.14;99974.72;4165451;28;20043;-61
2022/04/05 05:52:50;;;;;;;9.77;6.63;;;;;;;6.44;67.78;99984.34;4161515;28;20033;-62
2022/04/05 05:54:52;;;;;;;9.23;6.43;;;;;;;6.54;67.29;99981.13;4164127;28;20053;-62
2022/04/05 05:56:55;;;;;;;7.60;5.93;;;;;;;6.44;67.23;99976.59;4160855;28;20042;-61
2022/04/05 05:58:58;;;;;;;13.80;6.30;;;;;;;6.39;67.27;99980.78;4165270;28;20491;-61
2022/04/05 06:01:01;;;;;;;9.32;6.43;;;;;;;6.41;67.48;99981.66;4164308;28;20376;-62
2022/04/05 06:03:04;;;;;;;7.53;5.35;;;;;;;6.30;67.84;99981.44;4163402;28;20487;-61
2022/04/05 06:05:10;;;;;;;11.40;6.53;;;;;;;6.50;67.22;99991.34;4164446;28;20491;-61
2022/04/05 06:07:17;;;;;;;8.30;5.65;;;;;;;6.48;67.18;99980.97;4162451;28;20411;-61
2022/04/05 06:09:19;;;;;;;8.40;5.90;;;;;;;6.53;66.99;99994.88;4161135;28;20037;-61
2022/04/05 06:11:22;;;;;;;12.10;6.25;;;;;;;6.46;66.93;99996.44;4173160;28;20486;-62
2022/04/05 06:13:27;;;;;;;8.20;6.32;;;;;;;6.37;67.45;100003.13;4161527;28;20465;-61
2022/04/05 06:15:30;;;;;;;9.38;6.65;;;;;;;6.37;67.70;99997.94;4164764;28;20455;-62
2022/04/05 06:17:33;;;;;;;10.15;6.07;;;;;;;6.40;67.70;100008.34;4164060;28;20147;-62
2022/04/05 06:19:37;;;;;;;10.68;6.72;;;;;;;6.39;67.78;100002.28;4165145;28;20099;-62
2022/04/05 06:21:42;;;;;;;9.98;6.35;;;;;;;6.46;67.39;100003.31;4163894;28;20057;-62
2022/04/05 06:23:44;;;;;;;10.68;6.38;;;;;;;6.43;67.31;100006.69;4162029;28;20041;-62
2022/04/05 06:25:47;;;;;;;8.55;5.60;;;;;;;6.33;67.67;100020.22;4155951;28;20503;-62
2022/04/05 06:27:50;;;;;;;7.40;5.30;;;;;;;6.32;67.86;100008.13;4162087;28;20124;-62
2022/04/05 06:29:53;;;;;;;10.23;5.85;;;;;;;6.28;67.98;100009.78;4163967;28;20041;-62
2022/04/05 06:31:56;;;;;;;8.52;5.82;;;;;;;6.25;68.15;100011.41;4163878;28;20434;-62
2022/04/05 06:34:02;;;;;;;8.40;5.25;;;;;;;6.30;68.14;100007.25;4163770;28;20111;-62
2022/04/05 06:36:06;;;;;;;8.93;5.53;;;;;;;6.38;67.77;100004.84;4164411;28;20037;-62
2022/04/05 06:38:10;;;;;;;8.45;5.75;;;;;;;6.36;68.17;100011.69;4147400;28;20148;-62
2022/04/05 06:40:17;;;;;;;10.18;5.75;;;;;;;6.23;68.46;100010.50;4164840;28;20132;-63
2022/04/05 06:42:19;;;;;;;8.80;5.75;;;;;;;6.29;68.70;100016.72;4164882;28;20068;-63
2022/04/05 06:44:22;;;;;;;8.82;5.47;;;;;;;6.41;68.57;100015.22;4164890;28;20128;-62
2022/04/05 06:46:25;;;;;;;8.43;6.00;;;;;;;6.41;68.26;100023.88;4164417;28;20037;-62
2022/04/05 06:48:28;;;;;;;9.75;6.65;;;;;;;6.41;68.41;100025.56;4164527;28;20049;-62
2022/04/05 06:50:31;;;;;;;11.15;6.35;;;;;;;6.37;68.69;100024.63;4164811;28;20044;-62
2022/04/05 06:52:34;;;;;;;7.95;5.75;;;;;;;6.34;68.72;100029.72;4163395;28;20047;-62
2022/04/05 06:54:39;;;;;;;9.55;5.82;;;;;;;6.31;68.92;100029.66;4179948;28;20433;-62
2022/04/05 06:56:41;;;;;;;8.90;6.15;;;;;;;6.38;68.82;100035.81;4164381;28;20033;-61
2022/04/05 06:58:44;;;;;;;10.30;6.90;;;;;;;6.38;69.20;100030.66;4164426;28;20136;-62
2022/04/05 07:00:47;;;;;;;7.43;5.53;;;;;;;6.41;68.79;100022.97;4164641;28;20125;-61
2022/04/05 07:02:52;;;;;;;9.68;6.25;;;;;;;6.46;68.95;100029.13;4164523;28;20561;-61
2022/04/05 07:04:55;;;;;;;7.35;5.78;;;;;;;6.32;69.08;100022.78;4163966;28;20044;-62
2022/04/05 07:06:58;;;;;;;9.43;6.03;;;;;;;6.30;69.53;100030.47;4164301;28;20037;-62
2022/04/05 07:09:01;;;;;;;8.85;6.10;;;;;;;6.45;69.26;100042.88;4163155;28;20509;-61
2022/04/05 07:11:05;;;;;;;8.40;5.68;;;;;;;6.32;69.70;100040.84;4179740;28;20041;-62
2022/04/05 07:13:08;;;;;;;10.85;5.63;;;;;;;6.39;69.70;100042.75;4164415;28;20124;-61
2022/04/05 07:15:12;;;;;;;8.10;5.93;;;;;;;6.44;69.20;100031.69;4179183;28;20041;-61
2022/04/05 07:17:15;;;;;;;8.90;6.53;;;;;;;6.54;68.92;100027.63;4164491;28;20045;-62
2022/04/05 07:19:17;;;;;;;8.05;5.18;;;;;;;6.51;68.98;100029.25;4162716;28;20037;-61
2022/04/05 07:21:21;;;;;;;11.13;5.93;;;;;;;6.51;68.98;100031.81;4164427;28;20045;-62
2022/04/05 07:23:23;;;;;;;8.18;5.40;;;;;;;6.52;69.26;100033.59;4164321;28;20163;-62
2022/04/05 07:25:27;;;;;;;7.78;5.38;;;;;;;6.57;69.54;100030.28;4162954;28;20377;-61
2022/04/05 07:27:32;;;;;;;9.82;5.95;;;;;;;6.52;69.31;100029.28;4164033;28;20047;-61
2022/04/05 07:29:35;;;;;;;10.68;5.88;;;;;;;6.39;69.39;100046.19;4179355;28;20041;-61
2022/04/05 07:31:38;;;;;;;11.55;6.20;;;;;;;6.47;68.94;100033.47;4164209;28;20099;-62
2022/04/05 07:33:41;;;;;;;8.50;6.07;;;;;;;6.42;69.22;100030.75;4164147;28;20076;-62
2022/04/05 07:35:44;;;;;;;11.20;6.60;;;;;;;6.54;68.83;100022.47;4163616;28;20061;-61
2022/04/05 07:37:47;;;;;;;10.02;6.80;;;;;;;6.52;68.86;100023.25;4163918;28;20502;-61
2022/04/05 07:39:50;;;;;;;12.38;6.43;;;;;;;6.49;68.72;100023.19;4164009;28;20073;-61
2022/04/05 07:41:54;;;;;;;11.57;7.00;;;;;;;6.52;68.79;100018.94;4162927;28;20052;-61
2022/04/05 07:43:58;;;;;;;17.45;5.78;;;;;;;6.51;69.02;100029.25;4164015;28;20037;-61
2022/04/05 07:46:01;;;;;;;11.45;6.32;;;;;;;6.42;69.24;100027.31;4163571;28;20037;-61
2022/04/05 07:48:05;;;;;;;8.77;6.05;;;;;;;6.25;69.83;100020.03;4163953;28;20051;-61
2022/04/05 07:50:10;;;;;;;9.27;6.15;;;;;;;6.34;69.89;100021.97;4164036;28;20410;-61
2022/04/05 07:52:14;;;;;;;9.82;6.47;;;;;;;6.37;70.13;100024.63;4179176;28;20528;-61
2022/04/05 07:54:17;;;;;;;9.18;5.80;;;;;;;6.33;70.70;100017.63;4178495;28;20044;-61
2022/04/05 07:56:20;;;;;;;10.80;6.47;;;;;;;6.40;70.36;100026.41;4160141;28;20068;-61
2022/04/05 07:58:23;;;;;;;11.13;6.57;;;;;;;6.25;70.65;100022.63;4168527;28;20029;-62
2022/04/05 08:00:28;;;;;;;9.00;6.43;;;;;;;6.25;70.77;100020.03;4161686;28;20033;-62
2022/04/05 08:02:31;;;;;;;7.85;5.50;;;;;;;6.31;70.73;100014.16;4180297;28;20059;-62
2022/04/05 08:04:45;;;;;;;9.40;6.07;;;;;;;6.39;70.32;100022.09;4162040;28;20056;-61
2022/04/05 08:06:48;;;;;;;10.38;5.97;;;;;;;6.45;70.59;100019.63;4161999;28;20033;-62
2022/04/05 08:08:51;;;;;;;11.15;6.53;;;;;;;6.51;70.27;100022.34;4163387;28;20037;-62
2022/04/05 08:11:01;;;;;;;10.30;6.03;;;;;;;6.44;70.39;100021.34;4163741;28;20456;-62
2022/04/05 08:13:03;;;;;;;8.90;5.60;;;;;;;6.52;70.64;100031.00;4162177;28;20140;-61
2022/04/05 08:15:08;;;;;;;9.50;5.65;;;;;;;6.52;70.33;100024.13;4159537;28;20033;-61
2022/04/05 08:17:12;;;;;;;8.10;5.40;;;;;;;6.55;69.89;100028.50;4160755;28;20499;-62
2022/04/05 08:19:15;;;;;;;8.48;5.35;;;;;;;6.60;70.34;100025.19;4163036;28;20034;-62
2022/04/05 08:21:25;;;;;;;10.00;5.97;;;;;;;6.72;69.98;100034.06;4164893;28;20569;-62
2022/04/05 08:23:27;;;;;;;7.95;5.53;;;;;;;6.69;69.83;100028.78;4176613;28;20053;-62
2022/04/05 08:25:30;;;;;;;7.32;4.95;;;;;;;6.73;70.18;100033.19;4163784;28;20061;-62
2022/04/05 08:27:34;;;;;;;8.25;5.57;;;;;;;6.76;69.69;100035.84;4159814;28;20727;-61
2022/04/05 08:29:40;;;;;;;7.55;5.00;;;;;;;6.82;69.16;100038.59;4164342;28;20045;-62
2022/04/05 08:31:43;;;;;;;8.70;5.60;;;;;;;6.82;69.43;100033.44;4165968;28;20483;-62
2022/04/05 08:33:49;;;;;;;8.20;5.28;;;;;;;6.75;69.83;100045.31;4164801;28;20633;-62
2022/04/05 08:35:52;;;;;;;8.82;5.78;;;;;;;6.86;69.65;100034.34;4164905;28;20065;-62
2022/04/05 08:37:56;;;;;;;8.95;5.05;;;;;;;6.90;69.38;100031.88;4164887;28;20116;-62
2022/04/05 08:39:59;;;;;;;9.40;5.80;;;;;;;7.05;69.24;100027.88;4164922;28;20038;-62
2022/04/05 08:42:04;;;;;;;10.70;5.55;;;;;;;7.01;69.06;100037.28;4162584;28;20302;-62
2022/04/05 08:44:08;;;;;;;6.53;4.78;;;;;;;7.03;68.87;100038.19;4162542;28;20049;-61
2022/04/05 08:46:11;;;;;;;6.93;4.72;;;;;;;7.04;68.55;100033.88;4162807;28;20064;-61
2022/04/05 08:48:14;;;;;;;10.05;6.07;;;;;;;7.01;68.79;100037.28;4160051;28;20069;-62
2022/04/05 08:50:21;;;;;;;8.88;5.90;;;;;;;6.99;69.17;100029.50;4170968;28;20129;-63
2022/04/05 08:52:24;;;;;;;8.82;5.47;;;;;;;7.02;68.53;100028.66;4162084;28;20057;-62
2022/04/05 08:54:27;;;;;;;9.02;4.65;;;;;;;6.98;69.22;100035.50;4164354;28;20034;-62
2022/04/05 08:56:30;;;;;;;8.75;5.22;;;;;;;7.02;68.93;100036.44;4160097;28;20446;-62
2022/04/05 08:58:33;;;;;;;10.13;5.68;;;;;;;7.12;68.71;100032.34;4154315;28;20060;-62
2022/04/05 09:00:36;;;;;;;7.82;5.95;;;;;;;7.13;68.46;100034.94;4151396;28;20063;-62
2022/04/05 09:02:39;;;;;;;8.52;5.55;;;;;;;7.24;68.50;100037.78;4154782;28;20051;-62
2022/04/05 09:04:46;;;;;;;14.70;5.75;;;;;;;7.31;68.38;100031.88;4168511;28;20095;-61
2022/04/05 09:06:50;;;;;;;10.02;5.68;;;;;;;7.27;68.06;100031.78;4170315;28;20132;-61
2022/04/05 09:08:58;;;;;;;10.52;5.82;;;;;;;7.26;68.17;100030.06;4175465;28;20469;-61
2022/04/05 09:11:12;;;;;;;8.27;5.55;;;;;;;7.26;68.33;100027.47;4172357;28;20110;-61
2022/04/05 09:13:19;;;;;;;8.13;5.80;;;;;;;7.36;68.39;100031.09;4162905;28;20498;-62
2022/04/05 09:15:26;;;;;;;8.93;5.07;;;;;;;7.37;67.59;100028.53;4157079;28;20527;-61
2022/04/05 09:17:40;;;;;;;7.82;5.53;;;;;;;7.37;68.18;100032.84;4155442;28;20414;-62
2022/04/05 09:19:45;;;;;;;8.52;5.43;;;;;;;7.44;68.72;100039.88;4160791;28;20069;-61
2022/04/05 09:21:51;;;;;;;7.72;5.40;;;;;;;7.49;67.82;100040.84;4174891;28;20518;-61
2022/04/05 09:24:06;;;;;;;7.55;5.30;;;;;;;7.33;68.44;100042.28;4162342;28;20087;-61
2022/04/05 09:26:11;;;;;;;7.43;4.97;;;;;;;7.29;68.32;100043.91;4162967;28;20124;-61
2022/04/05 09:28:26;;;;;;;6.90;4.45;;;;;;;7.39;68.31;100037.22;4164174;28;20034;-61
2022/04/05 09:30:32;;;;;;;8.32;4.97;;;;;;;7.38;68.14;100050.97;4164119;28;20038;-61
2022/04/05 09:32:37;;;;;;;9.20;4.80;;;;;;;7.44;68.58;100047.66;4164920;28;20049;-61
2022/04/05 09:34:51;;;;;;;9.20;4.90;;;;;;;7.50;68.38;100051.25;4157832;28;20042;-61
2022/04/05 09:36:55;;;;;;;7.63;4.93;;;;;;;7.53;68.25;100045.22;4159198;28;20034;-62
2022/04/05 09:39:10;;;;;;;10.25;5.18;;;;;;;7.49;68.26;100046.00;4161192;28;20471;-61
2022/04/05 09:41:18;;;;;;;;;;;;;;;7.50;68.26;100034.84;4162923;28;20061;-62
2022/04/05 09:43:22;;;;;;;10.13;5.07;;;;;;;7.61;67.80;100043.69;4164410;28;19925;-62
2022/04/05 09:46:00;;;;;;;9.85;5.68;;;;;;;7.63;67.85;100041.13;4176589;28;20056;-62
2022/04/05 09:48:04;;;;;;;13.25;5.53;;;;;;;7.64;67.60;100038.56;4109220;28;20057;-61
2022/04/05 09:50:08;;;;;;;8.05;5.55;;;;;;;7.70;68.12;100043.00;4096056;29;20039;-61